Terminal Aerodrome Forecast
Issued by NWS Tuscon, AZ

Home | Current Version | Previous Version | Text Only | Print | Product List | Glossary On
Versions: 1 2 3 4 5 6 7 8 9 10 11 12 13 14 15
000
FTUS45 KTWC 161700
TAFDUG
TAF
KDUG 161736Z 1618/1718 08010KT P6SM VCSH SCT060 OVC080
      TEMPO 1620/1622 -TSRA BKN060CB
     FM162200 10012KT P6SM -SHRA BKN060 OVC080
      TEMPO 1622/1624 -TSRA BKN035 OVC050CB
     FM170000 10008KT P6SM -SHRA BKN035 OVC050
     FM170600 12007KT P6SM -SHRA BKN025 OVC040
      TEMPO 1706/1710 -TSRA BKN020CB OVC040
     FM171200 11012KT P6SM -SHRA BKN030 OVC050=

USA.gov is the U.S. government's official web portal to all federal, state and local government web resources and services.